Time;durP1;ratioP1;P1;durP2;ratioP2;P2;SDS_P1;SDS_P2;PMS_P1;PMS_P2;Temp;Humidity;BMP_temperature;BMP_pressure;BME280_temperature;BME280_humidity;BME280_pressure;Samples;Min_cycle;Max_cycle;Signal;HPM_P1;HPM_P2
2022/08/17 00:00:33;;;;;;;7.05;5.10;;;;;;;;;;5053877;28;20078;-68
2022/08/17 00:02:59;;;;;;;8.07;4.68;;;;;;;;;;5053636;28;20063;-68
2022/08/17 00:05:26;;;;;;;8.02;4.32;;;;;;;;;;5053675;28;20028;-68
2022/08/17 00:07:52;;;;;;;8.27;5.13;;;;;;;;;;5053874;28;20067;-68
2022/08/17 00:10:18;;;;;;;7.13;5.40;;;;;;;;;;5053609;28;20025;-68
2022/08/17 00:12:44;;;;;;;7.97;5.20;;;;;;;;;;5054061;28;20025;-68
2022/08/17 00:15:12;;;;;;;7.00;5.43;;;;;;;;;;5053480;28;20036;-68
2022/08/17 00:17:40;;;;;;;8.05;4.95;;;;;;;;;;5053693;28;20512;-68
2022/08/17 00:20:07;;;;;;;11.25;5.95;;;;;;;;;;5053471;28;20028;-68
2022/08/17 00:22:33;;;;;;;9.93;5.10;;;;;;;;;;5053678;28;20025;-68
2022/08/17 00:24:59;;;;;;;10.10;6.53;;;;;;;;;;5053265;28;20112;-68
2022/08/17 00:27:25;;;;;;;9.75;6.22;;;;;;;;;;5053348;28;20055;-68
2022/08/17 00:29:51;;;;;;;7.20;5.20;;;;;;;;;;5053351;28;20388;-68
2022/08/17 00:32:17;;;;;;;10.13;5.53;;;;;;;;;;5053265;28;20100;-69
2022/08/17 00:34:43;;;;;;;6.88;4.03;;;;;;;;;;5053500;28;20028;-68
2022/08/17 00:37:09;;;;;;;9.07;4.40;;;;;;;;;;5053458;28;20021;-68
2022/08/17 00:39:35;;;;;;;8.93;4.85;;;;;;;;;;5053124;28;20078;-68
2022/08/17 00:42:01;;;;;;;6.70;4.50;;;;;;;;;;5053621;28;20025;-68
2022/08/17 00:44:27;;;;;;;7.85;4.68;;;;;;;;;;5053264;28;20355;-68
2022/08/17 00:46:53;;;;;;;7.50;4.78;;;;;;;;;;5053066;28;20021;-68
2022/08/17 00:49:22;;;;;;;9.55;5.03;;;;;;;;;;5053397;28;20074;-68
2022/08/17 00:51:48;;;;;;;8.13;5.47;;;;;;;;;;5053144;28;20037;-68
2022/08/17 00:54:14;;;;;;;8.13;5.20;;;;;;;;;;5053064;28;20138;-68
2022/08/17 00:56:42;;;;;;;8.13;5.20;;;;;;;;;;5052935;28;20508;-68
2022/08/17 00:59:09;;;;;;;6.68;4.43;;;;;;;;;;5053579;28;20075;-68
2022/08/17 01:01:36;;;;;;;7.32;5.55;;;;;;;;;;5054036;28;20098;-68
2022/08/17 01:04:03;;;;;;;6.47;5.03;;;;;;;;;;5056954;28;20083;-68
2022/08/17 01:06:30;;;;;;;8.55;5.20;;;;;;;;;;5057033;28;20428;-68
2022/08/17 01:08:58;;;;;;;7.90;4.50;;;;;;;;;;5039091;28;20029;-68
2022/08/17 01:11:24;;;;;;;7.32;5.10;;;;;;;;;;5039049;28;20025;-68
2022/08/17 01:13:50;;;;;;;7.82;5.25;;;;;;;;;;5057136;28;20063;-68
2022/08/17 01:16:27;;;;;;;6.95;5.25;;;;;;;;;;5038892;28;20544;-68
2022/08/17 01:18:56;;;;;;;8.88;5.57;;;;;;;;;;5057363;28;20104;-68
2022/08/17 01:21:35;;;;;;;8.85;5.03;;;;;;;;;;5056673;28;20021;-68
2022/08/17 01:24:01;;;;;;;10.20;5.67;;;;;;;;;;5057168;28;20033;-68
2022/08/17 01:26:28;;;;;;;8.10;5.05;;;;;;;;;;5057188;28;20266;-68
2022/08/17 01:28:55;;;;;;;6.78;5.10;;;;;;;;;;5056591;28;20049;-68
2022/08/17 01:31:21;;;;;;;9.95;5.28;;;;;;;;;;5056823;28;20470;-68
2022/08/17 01:33:47;;;;;;;7.05;4.53;;;;;;;;;;5056517;28;20104;-68
2022/08/17 01:36:13;;;;;;;7.22;5.32;;;;;;;;;;5056439;28;20465;-68
2022/08/17 01:38:39;;;;;;;7.30;5.03;;;;;;;;;;5056398;28;20533;-68
2022/08/17 01:41:09;;;;;;;8.80;5.38;;;;;;;;;;5056365;28;20500;-68
2022/08/17 01:43:39;;;;;;;9.57;4.32;;;;;;;;;;5038913;28;20032;-68
2022/08/17 01:46:06;;;;;;;8.60;5.38;;;;;;;;;;5056614;28;20021;-68
2022/08/17 01:48:33;;;;;;;9.02;5.30;;;;;;;;;;5056525;28;20377;-68
2022/08/17 01:50:59;;;;;;;12.23;5.82;;;;;;;;;;5056427;28;20049;-68
2022/08/17 01:53:36;;;;;;;8.15;5.20;;;;;;;;;;5056142;28;20507;-68
2022/08/17 01:56:06;;;;;;;9.55;5.60;;;;;;;;;;5054774;28;20106;-68
2022/08/17 01:58:33;;;;;;;8.05;5.18;;;;;;;;;;5055175;28;20026;-68
2022/08/17 02:00:59;;;;;;;7.57;4.85;;;;;;;;;;5054782;28;20204;-68
2022/08/17 02:03:25;;;;;;;8.38;5.20;;;;;;;;;;5054695;28;20025;-68
2022/08/17 02:05:53;;;;;;;7.32;5.05;;;;;;;;;;5055238;28;20025;-68
2022/08/17 02:08:20;;;;;;;6.82;4.75;;;;;;;;;;5036636;28;20017;-68
2022/08/17 02:10:46;;;;;;;7.18;4.90;;;;;;;;;;5054943;28;20099;-68
2022/08/17 02:13:12;;;;;;;7.97;4.88;;;;;;;;;;5054520;28;20048;-68
2022/08/17 02:15:40;;;;;;;7.35;5.22;;;;;;;;;;5054548;28;20075;-68
2022/08/17 02:18:07;;;;;;;6.55;4.30;;;;;;;;;;5054598;28;20024;-68
2022/08/17 02:20:33;;;;;;;7.10;4.65;;;;;;;;;;5054520;28;20052;-68
2022/08/17 02:23:00;;;;;;;9.57;5.40;;;;;;;;;;5054750;28;20017;-68
2022/08/17 02:25:26;;;;;;;8.13;4.78;;;;;;;;;;5054372;28;20056;-68
2022/08/17 02:27:52;;;;;;;6.93;4.32;;;;;;;;;;5054666;28;20017;-68
2022/08/17 02:30:19;;;;;;;8.20;4.72;;;;;;;;;;5054366;28;20465;-68
2022/08/17 02:32:45;;;;;;;7.95;4.97;;;;;;;;;;5054657;28;20025;-68
2022/08/17 02:35:12;;;;;;;7.75;4.85;;;;;;;;;;5054276;28;20029;-68
2022/08/17 02:37:38;;;;;;;7.28;5.40;;;;;;;;;;5036416;28;20028;-68
2022/08/17 02:40:05;;;;;;;8.20;5.28;;;;;;;;;;5054481;28;20029;-68
2022/08/17 02:42:33;;;;;;;9.18;5.55;;;;;;;;;;5054758;28;20076;-68
2022/08/17 02:44:59;;;;;;;10.98;5.38;;;;;;;;;;5054068;28;20477;-68
2022/08/17 02:47:26;;;;;;;7.13;4.40;;;;;;;;;;5054335;28;20032;-68
2022/08/17 02:49:53;;;;;;;6.10;4.30;;;;;;;;;;5054330;28;20075;-68
2022/08/17 02:52:19;;;;;;;7.40;4.65;;;;;;;;;;5054026;28;20024;-68
2022/08/17 02:54:46;;;;;;;7.80;5.17;;;;;;;;;;5007915;28;1331850;-68
2022/08/17 02:57:12;;;;;;;6.32;4.60;;;;;;;;;;5055219;28;20028;-68
2022/08/17 02:59:38;;;;;;;8.05;4.32;;;;;;;;;;5055176;28;20032;-68
2022/08/17 03:02:06;;;;;;;9.90;4.88;;;;;;;;;;5054872;28;20029;-68
2022/08/17 03:04:32;;;;;;;6.75;4.68;;;;;;;;;;5055026;28;20488;-68
2022/08/17 03:06:59;;;;;;;6.28;4.20;;;;;;;;;;5055058;28;20502;-68
2022/08/17 03:09:25;;;;;;;7.57;4.55;;;;;;;;;;5054830;28;20091;-68
2022/08/17 03:11:51;;;;;;;6.80;4.55;;;;;;;;;;5054686;28;20025;-68
2022/08/17 03:14:17;;;;;;;5.90;4.20;;;;;;;;;;5054688;28;20448;-68
2022/08/17 03:16:44;;;;;;;9.40;4.15;;;;;;;;;;5054644;28;20413;-68
2022/08/17 03:19:10;;;;;;;7.25;3.85;;;;;;;;;;5054535;28;20113;-68
2022/08/17 03:21:36;;;;;;;7.22;3.78;;;;;;;;;;5054467;28;20033;-68
2022/08/17 03:24:03;;;;;;;6.25;3.70;;;;;;;;;;5053635;28;20552;-68
2022/08/17 03:26:31;;;;;;;7.45;3.97;;;;;;;;;;5054891;28;20071;-68
2022/08/17 03:28:57;;;;;;;7.55;4.55;;;;;;;;;;5036512;28;20056;-68
2022/08/17 03:31:23;;;;;;;8.35;5.15;;;;;;;;;;5054311;28;20367;-68
2022/08/17 03:33:49;;;;;;;7.53;5.55;;;;;;;;;;5054252;28;20025;-68
2022/08/17 03:36:16;;;;;;;7.32;4.88;;;;;;;;;;5054177;28;20028;-68
2022/08/17 03:38:42;;;;;;;12.18;5.75;;;;;;;;;;5054190;28;20021;-67
2022/08/17 03:41:08;;;;;;;17.27;6.43;;;;;;;;;;5036252;28;20366;-68
2022/08/17 03:43:34;;;;;;;11.35;6.40;;;;;;;;;;5054522;28;20025;-68
2022/08/17 03:57:03;;;;;;;9.95;6.40;;;;;;;;;;5054187;28;20082;-68
2022/08/17 03:59:29;;;;;;;;;;;;;;;;;;5054879;28;20029;-68
2022/08/17 04:01:57;;;;;;;16.52;7.20;;;;;;;;;;5053752;28;19911;-68
2022/08/17 04:04:24;;;;;;;10.23;6.95;;;;;;;;;;5053641;28;20021;-68
2022/08/17 04:06:50;;;;;;;11.60;7.15;;;;;;;;;;5035739;28;20044;-68
2022/08/17 04:09:16;;;;;;;12.50;7.00;;;;;;;;;;5053594;28;20044;-68
2022/08/17 04:11:42;;;;;;;12.95;6.15;;;;;;;;;;5053597;28;20025;-68
2022/08/17 04:14:08;;;;;;;10.48;5.30;;;;;;;;;;5035611;28;20036;-68
2022/08/17 04:16:35;;;;;;;12.82;6.03;;;;;;;;;;5053736;28;20040;-68
2022/08/17 04:19:02;;;;;;;17.08;6.43;;;;;;;;;;5053489;28;20056;-68
2022/08/17 04:21:28;;;;;;;14.10;6.07;;;;;;;;;;5053730;28;20029;-68
2022/08/17 04:23:54;;;;;;;11.32;6.20;;;;;;;;;;5053617;28;20035;-68
2022/08/17 04:26:21;;;;;;;12.50;5.68;;;;;;;;;;5053344;28;20470;-68
2022/08/17 04:28:47;;;;;;;12.98;6.15;;;;;;;;;;5053612;28;20109;-68
2022/08/17 04:31:14;;;;;;;8.02;5.63;;;;;;;;;;5053555;28;20056;-68
2022/08/17 04:33:42;;;;;;;8.35;5.45;;;;;;;;;;5053239;28;20025;-68
2022/08/17 04:36:09;;;;;;;10.25;6.00;;;;;;;;;;5053153;28;20043;-68
2022/08/17 04:38:36;;;;;;;11.15;7.00;;;;;;;;;;5053475;28;20052;-68
2022/08/17 04:43:47;;;;;;;12.73;7.15;;;;;;;;;;5054121;28;20056;-68
2022/08/17 04:46:18;;;;;;;10.68;6.65;;;;;;;;;;5053150;28;20029;-68
2022/08/17 04:48:45;;;;;;;12.25;7.20;;;;;;;;;;5053127;28;20056;-68
2022/08/17 04:51:14;;;;;;;11.60;7.30;;;;;;;;;;5053040;28;20021;-68
2022/08/17 04:53:41;;;;;;;11.88;7.65;;;;;;;;;;5053462;28;20040;-68
2022/08/17 04:56:08;;;;;;;11.05;7.50;;;;;;;;;;5035133;28;20108;-68
2022/08/17 04:58:34;;;;;;;10.50;7.93;;;;;;;;;;5053318;28;20029;-68
2022/08/17 05:01:00;;;;;;;12.55;9.10;;;;;;;;;;5053044;28;20052;-67
2022/08/17 05:03:26;;;;;;;16.60;9.23;;;;;;;;;;5053149;28;20048;-68
2022/08/17 05:05:52;;;;;;;16.77;9.15;;;;;;;;;;5052946;28;20121;-67
2022/08/17 05:08:19;;;;;;;16.27;9.52;;;;;;;;;;5052904;28;20478;-68
2022/08/17 05:10:45;;;;;;;18.77;10.23;;;;;;;;;;5053151;28;20063;-68
2022/08/17 05:13:30;;;;;;;16.05;9.77;;;;;;;;;;5052883;28;20017;-68
2022/08/17 05:15:58;;;;;;;17.50;10.52;;;;;;;;;;5053156;28;20466;-68
2022/08/17 05:18:24;;;;;;;15.85;11.02;;;;;;;;;;5053147;28;20021;-68
2022/08/17 05:20:51;;;;;;;16.73;10.40;;;;;;;;;;5053070;28;20399;-68
2022/08/17 05:23:18;;;;;;;17.25;11.18;;;;;;;;;;5052713;28;20029;-68
2022/08/17 05:25:45;;;;;;;15.05;10.25;;;;;;;;;;5052739;28;20049;-68
2022/08/17 05:28:11;;;;;;;15.27;10.80;;;;;;;;;;5034827;28;20021;-68
2022/08/17 05:30:38;;;;;;;13.70;10.15;;;;;;;;;;5052724;28;20020;-68
2022/08/17 05:33:08;;;;;;;16.95;9.88;;;;;;;;;;5052948;28;20029;-68
2022/08/17 05:35:34;;;;;;;;;;;;;;;;;;5053079;28;20032;-68
2022/08/17 05:38:00;;;;;;;22.70;11.07;;;;;;;;;;5053241;28;20275;-67
2022/08/17 05:40:27;;;;;;;16.98;10.18;;;;;;;;;;5052667;28;20025;-68
2022/08/17 05:43:12;;;;;;;17.88;10.55;;;;;;;;;;5053390;28;20027;-68
2022/08/17 05:45:45;;;;;;;18.60;10.68;;;;;;;;;;5034743;28;20489;-68
2022/08/17 05:48:11;;;;;;;20.35;11.35;;;;;;;;;;5054782;28;20029;-68
2022/08/17 05:50:46;;;;;;;15.57;9.93;;;;;;;;;;5056807;28;20025;-68
2022/08/17 05:53:12;;;;;;;18.02;9.80;;;;;;;;;;5056179;28;20033;-68
2022/08/17 05:55:48;;;;;;;20.35;11.00;;;;;;;;;;5055802;28;20048;-67
2022/08/17 05:58:32;;;;;;;14.93;10.18;;;;;;;;;;5056431;28;20082;-68
2022/08/17 06:01:02;;;;;;;15.70;9.82;;;;;;;;;;5056198;28;20045;-68
2022/08/17 06:03:35;;;;;;;20.55;10.65;;;;;;;;;;5056016;28;20060;-68
2022/08/17 06:06:17;;;;;;;22.05;10.98;;;;;;;;;;5056268;28;20032;-67
2022/08/17 06:08:44;;;;;;;28.30;10.77;;;;;;;;;;5037754;28;20401;-68
2022/08/17 06:11:16;;;;;;;23.25;10.50;;;;;;;;;;5055847;28;20067;-68
2022/08/17 06:13:42;;;;;;;23.02;10.65;;;;;;;;;;5055781;28;20112;-67
2022/08/17 06:16:10;;;;;;;14.77;10.07;;;;;;;;;;5056054;28;20057;-67
2022/08/17 06:18:43;;;;;;;19.58;10.82;;;;;;;;;;5055727;28;20033;-69
2022/08/17 06:21:12;;;;;;;23.55;11.18;;;;;;;;;;5055988;28;20044;-68
2022/08/17 06:23:58;;;;;;;26.30;11.88;;;;;;;;;;5055542;28;20064;-69
2022/08/17 06:26:35;;;;;;;28.02;12.45;;;;;;;;;;5055558;28;20116;-69
2022/08/17 06:29:03;;;;;;;26.58;12.63;;;;;;;;;;5055591;28;20053;-70
2022/08/17 06:31:34;;;;;;;31.85;12.63;;;;;;;;;;5055495;28;20492;-70
2022/08/17 06:34:02;;;;;;;24.65;14.75;;;;;;;;;;5055439;28;20079;-70
2022/08/17 06:36:33;;;;;;;32.67;12.63;;;;;;;;;;5055676;28;20465;-72
2022/08/17 06:39:13;;;;;;;16.50;11.77;;;;;;;;;;5055635;28;20431;-71
2022/08/17 06:41:48;;;;;;;18.27;11.40;;;;;;;;;;5055605;28;20021;-71
2022/08/17 06:44:23;;;;;;;16.67;11.45;;;;;;;;;;5055705;28;20098;-69
2022/08/17 06:46:51;;;;;;;17.55;12.52;;;;;;;;;;5055202;28;20025;-69
2022/08/17 06:49:29;;;;;;;18.45;11.50;;;;;;;;;;5055379;28;20025;-69
2022/08/17 06:52:14;;;;;;;18.92;12.57;;;;;;;;;;5055430;28;20029;-71
2022/08/17 06:55:01;;;;;;;15.52;11.50;;;;;;;;;;5054962;28;20059;-70
2022/08/17 06:57:36;;;;;;;15.60;11.77;;;;;;;;;;5055202;28;20025;-71
2022/08/17 07:00:14;;;;;;;14.80;10.77;;;;;;;;;;5053971;28;20024;-70
2022/08/17 07:02:47;;;;;;;15.73;11.82;;;;;;;;;;5055477;28;20033;-70
2022/08/17 07:05:15;;;;;;;16.65;12.25;;;;;;;;;;5055350;28;20040;-70
2022/08/17 07:08:02;;;;;;;16.48;12.68;;;;;;;;;;5054756;28;20386;-71
2022/08/17 07:10:31;;;;;;;20.25;12.13;;;;;;;;;;5054731;28;20120;-71
2022/08/17 07:13:01;;;;;;;16.63;12.05;;;;;;;;;;5054675;28;20029;-69
2022/08/17 07:15:32;;;;;;;17.70;12.88;;;;;;;;;;5055201;28;20044;-69
2022/08/17 07:17:59;;;;;;;15.32;11.68;;;;;;;;;;5036476;28;20120;-72
2022/08/17 07:20:26;;;;;;;17.27;13.38;;;;;;;;;;5054813;28;20025;-69
2022/08/17 07:23:07;;;;;;;18.15;12.93;;;;;;;;;;5036575;28;20067;-71
2022/08/17 07:25:33;;;;;;;18.95;14.00;;;;;;;;;;5054967;28;20025;-70
2022/08/17 07:28:02;;;;;;;20.38;13.30;;;;;;;;;;5054945;28;20044;-76
2022/08/17 07:30:28;;;;;;;19.38;13.32;;;;;;;;;;5054349;28;20017;-68
2022/08/17 07:32:56;;;;;;;17.02;12.95;;;;;;;;;;5054848;28;20104;-69
2022/08/17 07:35:22;;;;;;;16.63;12.98;;;;;;;;;;5054550;28;20473;-68
2022/08/17 07:37:54;;;;;;;19.10;13.73;;;;;;;;;;5054214;28;20032;-69
2022/08/17 07:40:32;;;;;;;16.73;13.48;;;;;;;;;;5054484;28;20036;-70
2022/08/17 07:43:01;;;;;;;19.63;14.65;;;;;;;;;;5054918;28;20053;-70
2022/08/17 07:48:22;;;;;;;18.38;13.68;;;;;;;;;;5054058;28;20087;-68
2022/08/17 07:50:48;;;;;;;18.50;13.65;;;;;;;;;;5054235;28;20045;-70
2022/08/17 07:53:16;;;;;;;20.23;14.55;;;;;;;;;;5053959;28;20021;-73
2022/08/17 07:55:44;;;;;;;20.52;15.07;;;;;;;;;;5053530;28;20040;-70
2022/08/17 07:58:15;;;;;;;17.63;13.48;;;;;;;;;;5053812;28;20371;-71
2022/08/17 08:00:41;;;;;;;19.25;14.30;;;;;;;;;;5054001;28;20025;-70
2022/08/17 08:03:16;;;;;;;22.58;15.82;;;;;;;;;;5053766;28;20063;-70
2022/08/17 08:05:56;;;;;;;20.83;15.20;;;;;;;;;;5035783;28;20047;-71
2022/08/17 08:08:22;;;;;;;21.27;14.98;;;;;;;;;;5054000;28;20021;-69
2022/08/17 08:10:58;;;;;;;22.00;15.98;;;;;;;;;;5053542;28;20028;-72
2022/08/17 08:13:24;;;;;;;23.23;15.93;;;;;;;;;;5035421;28;20075;-71
2022/08/17 08:15:55;;;;;;;21.33;15.43;;;;;;;;;;5053569;28;20087;-71
2022/08/17 08:18:20;;;;;;;;;;;;;;;;;;5036000;28;20082;-72
2022/08/17 08:20:48;;;;;;;20.85;15.27;;;;;;;;;;5035615;28;19908;-70
2022/08/17 08:23:24;;;;;;;20.90;15.43;;;;;;;;;;5053436;28;20432;-71
2022/08/17 08:25:55;;;;;;;22.98;14.35;;;;;;;;;;5053389;28;20052;-71
2022/08/17 08:28:27;;;;;;;19.73;14.98;;;;;;;;;;5053317;28;20428;-70
2022/08/17 08:30:57;;;;;;;21.17;15.95;;;;;;;;;;5053455;28;20117;-71
2022/08/17 08:33:24;;;;;;;;;;;;;;;;;;5054028;28;20078;-71
2022/08/17 08:35:53;;;;;;;20.73;14.95;;;;;;;;;;5053589;28;19905;-70
2022/08/17 08:38:25;;;;;;;24.52;15.70;;;;;;;;;;5053276;28;20539;-73
2022/08/17 08:41:04;;;;;;;19.83;15.48;;;;;;;;;;5035342;28;20029;-71
2022/08/17 08:43:39;;;;;;;20.20;15.20;;;;;;;;;;5053881;28;20035;-71
2022/08/17 08:46:18;;;;;;;23.10;14.32;;;;;;;;;;5053432;28;20087;-70
2022/08/17 08:48:50;;;;;;;19.73;15.25;;;;;;;;;;5053465;28;20017;-70
2022/08/17 08:51:19;;;;;;;22.42;14.77;;;;;;;;;;5053377;28;20025;-71
2022/08/17 08:53:54;;;;;;;23.00;14.35;;;;;;;;;;5052875;28;20032;-71
2022/08/17 08:56:41;;;;;;;19.95;14.70;;;;;;;;;;5053365;28;20115;-71
2022/08/17 08:59:07;;;;;;;18.50;13.23;;;;;;;;;;5052906;28;20029;-71
2022/08/17 09:01:59;;;;;;;17.45;13.70;;;;;;;;;;5052862;28;20466;-71
2022/08/17 09:04:25;;;;;;;18.60;14.05;;;;;;;;;;5049967;28;20367;-70
2022/08/17 09:06:56;;;;;;;17.63;12.30;;;;;;;;;;5052969;28;20031;-72
2022/08/17 09:09:41;;;;;;;19.40;12.23;;;;;;;;;;5053496;28;20017;-69
2022/08/17 09:12:07;;;;;;;18.40;12.38;;;;;;;;;;5053443;28;20025;-71
2022/08/17 09:14:38;;;;;;;16.20;11.65;;;;;;;;;;5052762;28;20116;-70
2022/08/17 09:17:11;;;;;;;19.05;10.75;;;;;;;;;;5053090;28;20036;-72
2022/08/17 09:19:56;;;;;;;14.30;8.88;;;;;;;;;;5053430;28;20029;-70
2022/08/17 09:22:22;;;;;;;13.73;8.82;;;;;;;;;;5053294;28;20536;-69
2022/08/17 09:24:57;;;;;;;13.63;9.50;;;;;;;;;;5056673;28;20100;-71
2022/08/17 09:27:27;;;;;;;15.35;9.13;;;;;;;;;;5057068;28;20420;-70
2022/08/17 09:29:59;;;;;;;14.48;9.15;;;;;;;;;;5056679;28;20056;-70
2022/08/17 09:32:39;;;;;;;13.25;9.65;;;;;;;;;;5056599;28;20112;-71
2022/08/17 09:35:14;;;;;;;13.13;9.48;;;;;;;;;;5056556;28;20591;-71
2022/08/17 09:37:53;;;;;;;12.77;9.73;;;;;;;;;;5038577;28;20040;-71
2022/08/17 09:40:28;;;;;;;12.02;8.45;;;;;;;;;;5056495;28;20133;-72
2022/08/17 09:43:01;;;;;;;12.10;8.68;;;;;;;;;;5056426;28;20108;-72
2022/08/17 09:45:30;;;;;;;9.82;7.85;;;;;;;;;;5056609;28;20031;-71
2022/08/17 09:48:01;;;;;;;11.65;8.00;;;;;;;;;;5056364;28;20017;-69
2022/08/17 09:50:30;;;;;;;8.75;4.93;;;;;;;;;;5056598;28;20024;-70
2022/08/17 09:52:59;;;;;;;5.90;3.40;;;;;;;;;;5056204;28;20083;-70
2022/08/17 09:55:51;;;;;;;6.13;3.13;;;;;;;;;;5055987;28;20104;-70
2022/08/17 09:58:21;;;;;;;4.70;2.90;;;;;;;;;;5054104;28;20076;-71
2022/08/17 10:00:47;;;;;;;;;;;;;;;;;;5056480;28;20083;-71
2022/08/17 10:03:33;;;;;;;3.33;2.60;;;;;;;;;;5056038;28;20360;-70
2022/08/17 10:05:59;;;;;;;3.85;2.53;;;;;;;;;;5038054;28;20099;-69
2022/08/17 10:08:31;;;;;;;3.55;2.35;;;;;;;;;;5055898;28;20465;-70
2022/08/17 10:11:07;;;;;;;2.22;2.03;;;;;;;;;;5056196;28;20489;-70
2022/08/17 10:13:35;;;;;;;3.60;2.10;;;;;;;;;;5055867;28;20075;-71
2022/08/17 10:16:10;;;;;;;2.65;2.08;;;;;;;;;;5055790;28;20029;-69
2022/08/17 10:18:44;;;;;;;4.20;2.40;;;;;;;;;;5056077;28;20029;-71
2022/08/17 10:26:45;;;;;;;3.05;2.25;;;;;;;;;;5055641;28;20028;-71
2022/08/17 10:29:16;;;;;;;3.22;2.05;;;;;;;;;;5055557;28;20060;-71
2022/08/17 10:31:45;;;;;;;7.68;3.38;;;;;;;;;;5037351;28;20572;-70
2022/08/17 10:34:30;;;;;;;3.85;2.65;;;;;;;;;;5055188;28;20036;-69
2022/08/17 10:37:15;;;;;;;2.35;2.15;;;;;;;;;;5055457;28;20029;-70
2022/08/17 10:39:45;;;;;;;4.05;2.67;;;;;;;;;;5055385;28;20036;-71
2022/08/17 10:42:27;;;;;;;3.67;2.40;;;;;;;;;;5055869;28;20108;-70
2022/08/17 10:44:59;;;;;;;4.47;2.38;;;;;;;;;;5055662;28;20040;-72
2022/08/17 10:47:45;;;;;;;2.65;2.10;;;;;;;;;;5055483;28;20025;-70
2022/08/17 10:50:29;;;;;;;7.10;2.22;;;;;;;;;;5055111;28;20106;-72
2022/08/17 10:52:55;;;;;;;3.90;2.30;;;;;;;;;;5055672;28;20021;-70
2022/08/17 10:55:24;;;;;;;2.65;2.00;;;;;;;;;;5054818;28;20049;-71
2022/08/17 10:57:53;;;;;;;2.53;1.92;;;;;;;;;;5037168;28;20036;-73
2022/08/17 11:00:28;;;;;;;4.32;1.92;;;;;;;;;;5055254;28;20469;-71
2022/08/17 11:02:56;;;;;;;3.80;2.63;;;;;;;;;;5055462;28;20029;-70
2022/08/17 11:05:31;;;;;;;3.50;2.35;;;;;;;;;;5055361;28;20032;-71
2022/08/17 11:08:06;;;;;;;5.38;2.90;;;;;;;;;;5055189;28;20044;-71
2022/08/17 11:10:31;;;;;;;3.67;2.40;;;;;;;;;;5054808;28;20029;-74
2022/08/17 11:13:17;;;;;;;6.93;4.32;;;;;;;;;;5054762;28;20390;-70
2022/08/17 11:16:02;;;;;;;5.00;3.53;;;;;;;;;;5054766;28;20025;-71
2022/08/17 11:18:43;;;;;;;7.93;4.80;;;;;;;;;;5054637;28;20029;-71
2022/08/17 11:21:16;;;;;;;6.22;4.13;;;;;;;;;;5055113;28;20033;-70
2022/08/17 11:24:11;;;;;;;5.85;3.63;;;;;;;;;;5055024;28;20087;-73
2022/08/17 11:26:44;;;;;;;6.40;3.83;;;;;;;;;;5054495;28;20036;-70
2022/08/17 11:29:26;;;;;;;6.68;3.72;;;;;;;;;;5054723;28;20107;-71
2022/08/17 11:32:02;;;;;;;8.38;3.92;;;;;;;;;;5036470;28;20036;-72
2022/08/17 11:34:29;;;;;;;6.05;3.80;;;;;;;;;;5054629;28;20021;-70
2022/08/17 11:37:11;;;;;;;7.43;4.85;;;;;;;;;;5054257;28;20029;-69
2022/08/17 11:39:37;;;;;;;7.20;4.95;;;;;;;;;;5054569;28;20488;-70
2022/08/17 11:42:06;;;;;;;7.32;5.15;;;;;;;;;;5054198;28;20025;-70
2022/08/17 11:44:38;;;;;;;9.32;4.93;;;;;;;;;;5054506;28;20021;-70
2022/08/17 11:53:04;;;;;;;7.72;4.88;;;;;;;;;;5054527;28;20059;-73
2022/08/17 11:55:31;;;;;;;10.48;4.85;;;;;;;;;;5053572;28;20056;-70
2022/08/17 11:58:00;;;;;;;6.30;4.18;;;;;;;;;;5053848;28;20497;-72
2022/08/17 12:00:44;;;;;;;6.77;4.40;;;;;;;;;;5053987;28;20400;-70
2022/08/17 12:03:23;;;;;;;8.15;4.60;;;;;;;;;;5053716;28;20111;-70
2022/08/17 12:05:52;;;;;;;7.63;4.80;;;;;;;;;;5053684;28;20066;-71
2022/08/17 12:08:21;;;;;;;7.28;5.07;;;;;;;;;;5053703;28;20017;-70
2022/08/17 12:11:08;;;;;;;8.45;5.28;;;;;;;;;;5053641;28;20032;-70
2022/08/17 12:13:37;;;;;;;7.57;5.05;;;;;;;;;;5046327;28;20120;-72
2022/08/17 12:16:04;;;;;;;9.55;5.80;;;;;;;;;;5053837;28;20028;-73
2022/08/17 12:18:34;;;;;;;8.02;5.43;;;;;;;;;;5053500;28;20028;-71
2022/08/17 12:21:00;;;;;;;;;;;;;;;;;;5053889;28;20024;-71
2022/08/17 12:23:38;;;;;;;9.55;5.63;;;;;;;;;;5035551;28;19909;-72
2022/08/17 12:26:14;;;;;;;8.02;5.30;;;;;;;;;;5053417;28;20036;-70
2022/08/17 12:28:44;;;;;;;8.95;5.60;;;;;;;;;;5053986;28;20071;-71
2022/08/17 12:31:17;;;;;;;7.38;5.53;;;;;;;;;;5053635;28;20063;-69
2022/08/17 12:33:45;;;;;;;7.10;5.05;;;;;;;;;;5053641;28;20086;-70
2022/08/17 12:36:13;;;;;;;10.05;5.13;;;;;;;;;;5053248;28;20029;-70
2022/08/17 12:38:40;;;;;;;9.75;5.10;;;;;;;;;;5053608;28;20039;-71
2022/08/17 12:41:27;;;;;;;9.48;5.25;;;;;;;;;;5053477;28;20025;-70
2022/08/17 12:44:01;;;;;;;9.48;5.00;;;;;;;;;;5035618;28;20025;-71
2022/08/17 12:46:28;;;;;;;7.45;5.13;;;;;;;;;;5053188;28;20055;-71
2022/08/17 12:49:09;;;;;;;7.80;4.40;;;;;;;;;;5053666;28;20017;-69
2022/08/17 12:51:35;;;;;;;6.35;3.80;;;;;;;;;;5053680;28;20029;-72
2022/08/17 12:54:02;;;;;;;3.28;2.72;;;;;;;;;;5053143;28;20056;-71
2022/08/17 12:56:28;;;;;;;5.25;3.08;;;;;;;;;;5054027;28;20473;-70
2022/08/17 12:58:55;;;;;;;4.68;3.53;;;;;;;;;;5057241;28;20021;-70
2022/08/17 13:01:23;;;;;;;4.75;3.53;;;;;;;;;;5057122;28;20497;-71
2022/08/17 13:03:51;;;;;;;6.97;4.25;;;;;;;;;;5057394;28;20052;-70
2022/08/17 13:06:32;;;;;;;4.55;3.45;;;;;;;;;;5057432;28;20099;-71
2022/08/17 13:09:07;;;;;;;5.95;3.47;;;;;;;;;;5057083;28;20523;-71
2022/08/17 13:11:33;;;;;;;4.85;3.22;;;;;;;;;;5038882;28;20477;-71
2022/08/17 13:14:08;;;;;;;5.00;3.78;;;;;;;;;;5056987;28;20025;-71
2022/08/17 13:16:34;;;;;;;3.65;2.70;;;;;;;;;;5057534;28;20063;-71
2022/08/17 13:19:13;;;;;;;4.65;3.40;;;;;;;;;;5056886;28;20393;-70
2022/08/17 13:21:44;;;;;;;12.85;3.95;;;;;;;;;;5057186;28;20024;-73
2022/08/17 13:24:10;;;;;;;8.30;4.20;;;;;;;;;;5056997;28;20496;-69
2022/08/17 13:26:47;;;;;;;8.15;4.18;;;;;;;;;;5056720;28;20029;-71
2022/08/17 13:29:18;;;;;;;7.07;4.85;;;;;;;;;;5038548;28;20017;-72
2022/08/17 13:31:44;;;;;;;6.07;3.92;;;;;;;;;;5056658;28;20107;-71
2022/08/17 13:34:19;;;;;;;4.13;2.25;;;;;;;;;;5056590;28;20078;-70
2022/08/17 13:36:46;;;;;;;2.15;1.92;;;;;;;;;;5056825;28;20477;-71
2022/08/17 13:39:15;;;;;;;2.22;1.70;;;;;;;;;;5056789;28;20028;-71
2022/08/17 13:41:41;;;;;;;2.17;1.58;;;;;;;;;;5056982;28;20029;-71
2022/08/17 13:44:27;;;;;;;1.70;1.48;;;;;;;;;;5056868;28;20030;-70
2022/08/17 13:46:53;;;;;;;1.73;1.60;;;;;;;;;;5056693;28;20075;-71
2022/08/17 13:49:20;;;;;;;1.88;1.55;;;;;;;;;;5056315;28;20393;-70
2022/08/17 13:51:48;;;;;;;9.73;2.47;;;;;;;;;;5056270;28;20013;-71
2022/08/17 13:54:17;;;;;;;4.10;1.80;;;;;;;;;;5056441;28;20452;-70
2022/08/17 13:57:00;;;;;;;2.42;1.50;;;;;;;;;;5056443;28;20025;-71
2022/08/17 13:59:31;;;;;;;1.63;1.52;;;;;;;;;;5056423;28;20029;-72
2022/08/17 14:01:58;;;;;;;2.47;1.90;;;;;;;;;;5056276;28;20071;-70
2022/08/17 14:04:30;;;;;;;2.65;1.90;;;;;;;;;;5056009;28;20035;-71
2022/08/17 14:06:59;;;;;;;2.88;1.85;;;;;;;;;;5056063;28;20381;-71
2022/08/17 14:09:27;;;;;;;2.80;1.83;;;;;;;;;;5055591;28;20489;-74
2022/08/17 14:11:53;;;;;;;1.80;1.70;;;;;;;;;;5055871;28;20017;-72
2022/08/17 14:14:21;;;;;;;1.67;1.58;;;;;;;;;;5056114;28;20036;-71
2022/08/17 14:16:48;;;;;;;3.83;2.03;;;;;;;;;;5037917;28;20025;-71
2022/08/17 14:19:14;;;;;;;3.15;2.13;;;;;;;;;;5055759;28;20409;-70
2022/08/17 14:21:41;;;;;;;2.75;1.75;;;;;;;;;;5055702;28;20566;-72
2022/08/17 14:24:09;;;;;;;4.22;1.90;;;;;;;;;;5055583;28;20474;-70
2022/08/17 14:26:36;;;;;;;4.60;2.10;;;;;;;;;;5055574;28;20021;-70
2022/08/17 14:29:02;;;;;;;3.33;1.88;;;;;;;;;;5037474;28;20051;-71
2022/08/17 14:31:28;;;;;;;2.70;1.90;;;;;;;;;;5055788;28;20482;-70
2022/08/17 14:33:54;;;;;;;3.42;1.83;;;;;;;;;;5055534;28;20043;-71
2022/08/17 14:36:20;;;;;;;4.20;2.03;;;;;;;;;;5055445;28;20021;-71
2022/08/17 14:38:46;;;;;;;3.53;2.28;;;;;;;;;;5055396;28;20029;-69
2022/08/17 14:41:14;;;;;;;4.55;2.20;;;;;;;;;;5037489;28;20500;-69
2022/08/17 14:43:40;;;;;;;3.15;1.70;;;;;;;;;;5055316;28;20089;-73
2022/08/17 14:46:06;;;;;;;2.30;1.73;;;;;;;;;;5055800;28;20108;-71
2022/08/17 14:48:34;;;;;;;4.07;1.80;;;;;;;;;;5055725;28;20029;-72
2022/08/17 14:51:00;;;;;;;2.42;1.70;;;;;;;;;;5055228;28;20027;-73
2022/08/17 14:53:26;;;;;;;4.35;1.55;;;;;;;;;;5055400;28;20104;-73
2022/08/17 14:55:52;;;;;;;2.05;1.50;;;;;;;;;;5054690;28;20397;-73
2022/08/17 14:58:19;;;;;;;2.28;1.75;;;;;;;;;;5055059;28;20029;-71
2022/08/17 15:00:45;;;;;;;3.33;1.75;;;;;;;;;;5054966;28;20076;-72
2022/08/17 15:03:11;;;;;;;3.80;1.75;;;;;;;;;;5054960;28;20032;-69
2022/08/17 15:05:38;;;;;;;2.00;1.55;;;;;;;;;;5055184;28;20405;-72
2022/08/17 15:08:04;;;;;;;2.25;1.80;;;;;;;;;;5055122;28;20048;-70
2022/08/17 15:10:31;;;;;;;2.28;1.73;;;;;;;;;;5054766;28;20516;-70
2022/08/17 15:12:57;;;;;;;2.30;1.77;;;;;;;;;;5054764;28;20040;-70
2022/08/17 15:15:24;;;;;;;3.78;1.80;;;;;;;;;;5054750;28;20029;-71
2022/08/17 15:17:50;;;;;;;1.70;1.60;;;;;;;;;;5054984;28;20025;-71
2022/08/17 15:20:18;;;;;;;2.15;1.83;;;;;;;;;;5053618;28;20021;-72